sensor_id;sensor_type;location;lat;lon;timestamp;temperature;humidity
71994;DHT22;59861;50.268;8.648;2022-11-20T00:01:28;16.70;61.80
71994;DHT22;59861;50.268;8.648;2022-11-20T00:03:55;16.70;61.80
71994;DHT22;59861;50.268;8.648;2022-11-20T00:06:23;16.70;61.80
71994;DHT22;59861;50.268;8.648;2022-11-20T00:08:51;16.70;61.80
71994;DHT22;59861;50.268;8.648;2022-11-20T00:11:20;16.60;61.70
71994;DHT22;59861;50.268;8.648;2022-11-20T00:13:48;16.70;61.80
71994;DHT22;59861;50.268;8.648;2022-11-20T00:16:17;16.60;61.70
71994;DHT22;59861;50.268;8.648;2022-11-20T00:18:44;16.70;61.80
71994;DHT22;59861;50.268;8.648;2022-11-20T00:21:12;16.70;61.80
71994;DHT22;59861;50.268;8.648;2022-11-20T00:23:40;16.60;61.80
71994;DHT22;59861;50.268;8.648;2022-11-20T00:26:08;16.60;61.70
71994;DHT22;59861;50.268;8.648;2022-11-20T00:28:35;16.70;61.70
71994;DHT22;59861;50.268;8.648;2022-11-20T00:31:08;16.60;61.60
71994;DHT22;59861;50.268;8.648;2022-11-20T00:33:30;16.60;61.60
71994;DHT22;59861;50.268;8.648;2022-11-20T00:36:01;16.60;61.70
71994;DHT22;59861;50.268;8.648;2022-11-20T00:38:28;16.60;61.60
71994;DHT22;59861;50.268;8.648;2022-11-20T00:40:56;16.60;61.60
71994;DHT22;59861;50.268;8.648;2022-11-20T00:43:22;16.60;61.60
71994;DHT22;59861;50.268;8.648;2022-11-20T00:45:50;16.60;61.60
71994;DHT22;59861;50.268;8.648;2022-11-20T00:48:16;16.60;61.50
71994;DHT22;59861;50.268;8.648;2022-11-20T00:50:43;16.60;61.60
71994;DHT22;59861;50.268;8.648;2022-11-20T00:53:10;16.60;61.60
71994;DHT22;59861;50.268;8.648;2022-11-20T00:55:37;16.60;61.60
71994;DHT22;59861;50.268;8.648;2022-11-20T00:58:04;16.60;61.50
71994;DHT22;59861;50.268;8.648;2022-11-20T01:00:30;16.60;61.50
71994;DHT22;59861;50.268;8.648;2022-11-20T01:02:57;16.60;61.50
71994;DHT22;59861;50.268;8.648;2022-11-20T01:05:24;16.60;61.50
71994;DHT22;59861;50.268;8.648;2022-11-20T01:07:51;16.60;61.50
71994;DHT22;59861;50.268;8.648;2022-11-20T01:10:18;16.60;61.50
71994;DHT22;59861;50.268;8.648;2022-11-20T01:12:44;16.60;61.50
71994;DHT22;59861;50.268;8.648;2022-11-20T01:15:13;16.60;61.50
71994;DHT22;59861;50.268;8.648;2022-11-20T01:17:40;16.60;61.60
71994;DHT22;59861;50.268;8.648;2022-11-20T01:20:07;16.60;61.50
71994;DHT22;59861;50.268;8.648;2022-11-20T01:22:34;16.60;61.60
71994;DHT22;59861;50.268;8.648;2022-11-20T01:25:00;16.60;61.50
71994;DHT22;59861;50.268;8.648;2022-11-20T01:27:27;16.60;61.60
71994;DHT22;59861;50.268;8.648;2022-11-20T01:29:54;16.60;61.50
71994;DHT22;59861;50.268;8.648;2022-11-20T01:32:21;16.60;61.60
71994;DHT22;59861;50.268;8.648;2022-11-20T01:34:47;16.60;61.50
71994;DHT22;59861;50.268;8.648;2022-11-20T01:37:14;16.60;61.50
71994;DHT22;59861;50.268;8.648;2022-11-20T01:39:41;16.60;61.50
71994;DHT22;59861;50.268;8.648;2022-11-20T01:42:08;16.60;61.50
71994;DHT22;59861;50.268;8.648;2022-11-20T01:44:54;16.60;61.50
71994;DHT22;59861;50.268;8.648;2022-11-20T01:47:27;16.60;61.50
71994;DHT22;59861;50.268;8.648;2022-11-20T01:49:50;16.60;61.50
71994;DHT22;59861;50.268;8.648;2022-11-20T01:52:26;16.60;61.50
71994;DHT22;59861;50.268;8.648;2022-11-20T01:54:54;16.60;61.40
71994;DHT22;59861;50.268;8.648;2022-11-20T01:57:18;16.60;61.50
71994;DHT22;59861;50.268;8.648;2022-11-20T01:59:46;16.60;61.50
71994;DHT22;59861;50.268;8.648;2022-11-20T02:02:13;16.60;61.40
71994;DHT22;59861;50.268;8.648;2022-11-20T02:04:40;16.60;61.40
71994;DHT22;59861;50.268;8.648;2022-11-20T02:07:07;16.60;61.40
71994;DHT22;59861;50.268;8.648;2022-11-20T02:09:34;16.60;61.40
71994;DHT22;59861;50.268;8.648;2022-11-20T02:12:01;16.50;61.40
71994;DHT22;59861;50.268;8.648;2022-11-20T02:14:29;16.60;61.30
71994;DHT22;59861;50.268;8.648;2022-11-20T02:16:56;16.60;61.30
71994;DHT22;59861;50.268;8.648;2022-11-20T02:19:30;16.60;61.40
71994;DHT22;59861;50.268;8.648;2022-11-20T02:24:42;16.50;61.30
71994;DHT22;59861;50.268;8.648;2022-11-20T02:27:13;16.50;61.20
71994;DHT22;59861;50.268;8.648;2022-11-20T02:29:53;16.50;61.30
71994;DHT22;59861;50.268;8.648;2022-11-20T02:32:22;16.60;61.30
71994;DHT22;59861;50.268;8.648;2022-11-20T02:34:50;16.60;61.30
71994;DHT22;59861;50.268;8.648;2022-11-20T02:37:16;16.50;61.20
71994;DHT22;59861;50.268;8.648;2022-11-20T02:39:44;16.50;61.30
71994;DHT22;59861;50.268;8.648;2022-11-20T02:42:12;16.50;61.30
71994;DHT22;59861;50.268;8.648;2022-11-20T02:44:39;16.50;61.30
71994;DHT22;59861;50.268;8.648;2022-11-20T02:47:06;16.50;61.20
71994;DHT22;59861;50.268;8.648;2022-11-20T02:49:33;16.50;61.20
71994;DHT22;59861;50.268;8.648;2022-11-20T02:51:59;16.50;61.30
71994;DHT22;59861;50.268;8.648;2022-11-20T02:54:26;16.50;61.20
71994;DHT22;59861;50.268;8.648;2022-11-20T02:56:53;16.50;61.20
71994;DHT22;59861;50.268;8.648;2022-11-20T02:59:20;16.50;61.20
71994;DHT22;59861;50.268;8.648;2022-11-20T03:01:47;16.50;61.20
71994;DHT22;59861;50.268;8.648;2022-11-20T03:04:14;16.50;61.20
71994;DHT22;59861;50.268;8.648;2022-11-20T03:06:40;16.50;61.20
71994;DHT22;59861;50.268;8.648;2022-11-20T03:09:07;16.50;61.30
71994;DHT22;59861;50.268;8.648;2022-11-20T03:11:35;16.50;61.20
71994;DHT22;59861;50.268;8.648;2022-11-20T03:14:03;16.50;61.20
71994;DHT22;59861;50.268;8.648;2022-11-20T03:16:30;16.50;61.40
71994;DHT22;59861;50.268;8.648;2022-11-20T03:18:57;16.50;61.30
71994;DHT22;59861;50.268;8.648;2022-11-20T03:21:24;16.50;61.30
71994;DHT22;59861;50.268;8.648;2022-11-20T03:23:52;16.50;61.40
71994;DHT22;59861;50.268;8.648;2022-11-20T03:26:24;16.50;61.20
71994;DHT22;59861;50.268;8.648;2022-11-20T03:28:52;16.50;61.30
71994;DHT22;59861;50.268;8.648;2022-11-20T03:31:23;16.50;61.20
71994;DHT22;59861;50.268;8.648;2022-11-20T03:33:50;16.50;61.20
71994;DHT22;59861;50.268;8.648;2022-11-20T03:36:17;16.50;61.20
71994;DHT22;59861;50.268;8.648;2022-11-20T03:38:45;16.50;61.20
71994;DHT22;59861;50.268;8.648;2022-11-20T03:41:12;16.50;61.20
71994;DHT22;59861;50.268;8.648;2022-11-20T03:43:39;16.50;61.20
71994;DHT22;59861;50.268;8.648;2022-11-20T03:46:06;16.50;61.10
71994;DHT22;59861;50.268;8.648;2022-11-20T03:48:33;16.50;61.10
71994;DHT22;59861;50.268;8.648;2022-11-20T03:51:14;16.50;61.20
71994;DHT22;59861;50.268;8.648;2022-11-20T03:53:43;16.50;61.20
71994;DHT22;59861;50.268;8.648;2022-11-20T03:56:09;16.50;61.20
71994;DHT22;59861;50.268;8.648;2022-11-20T03:58:37;16.50;61.10
71994;DHT22;59861;50.268;8.648;2022-11-20T04:01:06;16.50;61.20
71994;DHT22;59861;50.268;8.648;2022-11-20T04:03:33;16.40;61.00
71994;DHT22;59861;50.268;8.648;2022-11-20T04:06:04;16.50;61.10
71994;DHT22;59861;50.268;8.648;2022-11-20T04:08:31;16.40;61.00
71994;DHT22;59861;50.268;8.648;2022-11-20T04:11:11;16.50;61.10
71994;DHT22;59861;50.268;8.648;2022-11-20T04:13:36;16.50;61.10
71994;DHT22;59861;50.268;8.648;2022-11-20T04:16:03;16.50;61.10
71994;DHT22;59861;50.268;8.648;2022-11-20T04:18:30;16.50;61.10
71994;DHT22;59861;50.268;8.648;2022-11-20T04:20:57;16.40;61.00
71994;DHT22;59861;50.268;8.648;2022-11-20T04:23:24;16.40;61.00
71994;DHT22;59861;50.268;8.648;2022-11-20T04:25:51;16.40;61.00
71994;DHT22;59861;50.268;8.648;2022-11-20T04:28:18;16.40;61.00
71994;DHT22;59861;50.268;8.648;2022-11-20T04:30:44;16.40;61.00
71994;DHT22;59861;50.268;8.648;2022-11-20T04:33:11;16.50;61.10
71994;DHT22;59861;50.268;8.648;2022-11-20T04:35:38;16.40;61.00
71994;DHT22;59861;50.268;8.648;2022-11-20T04:38:05;16.40;60.50
71994;DHT22;59861;50.268;8.648;2022-11-20T04:40:32;16.40;61.00
71994;DHT22;59861;50.268;8.648;2022-11-20T04:42:59;16.40;61.00
71994;DHT22;59861;50.268;8.648;2022-11-20T04:45:25;16.40;61.00
71994;DHT22;59861;50.268;8.648;2022-11-20T04:47:52;16.40;61.00
71994;DHT22;59861;50.268;8.648;2022-11-20T04:50:19;16.40;61.00
71994;DHT22;59861;50.268;8.648;2022-11-20T04:52:46;16.40;60.90
71994;DHT22;59861;50.268;8.648;2022-11-20T04:55:13;16.40;61.00
71994;DHT22;59861;50.268;8.648;2022-11-20T04:57:39;16.40;61.00
71994;DHT22;59861;50.268;8.648;2022-11-20T05:00:07;16.40;60.90
71994;DHT22;59861;50.268;8.648;2022-11-20T05:02:33;16.40;60.90
71994;DHT22;59861;50.268;8.648;2022-11-20T05:05:00;16.40;60.90
71994;DHT22;59861;50.268;8.648;2022-11-20T05:07:27;16.40;61.00
71994;DHT22;59861;50.268;8.648;2022-11-20T05:09:54;16.40;60.90
71994;DHT22;59861;50.268;8.648;2022-11-20T05:12:21;16.40;61.00
71994;DHT22;59861;50.268;8.648;2022-11-20T05:14:47;16.40;60.90
71994;DHT22;59861;50.268;8.648;2022-11-20T05:17:14;16.40;60.90
71994;DHT22;59861;50.268;8.648;2022-11-20T05:19:41;16.40;60.90
71994;DHT22;59861;50.268;8.648;2022-11-20T05:22:08;16.40;61.00
71994;DHT22;59861;50.268;8.648;2022-11-20T05:24:35;16.40;60.90
71994;DHT22;59861;50.268;8.648;2022-11-20T05:27:01;16.40;60.90
71994;DHT22;59861;50.268;8.648;2022-11-20T05:29:28;16.40;60.80
71994;DHT22;59861;50.268;8.648;2022-11-20T05:31:55;16.40;60.90
71994;DHT22;59861;50.268;8.648;2022-11-20T05:34:22;16.40;60.90
71994;DHT22;59861;50.268;8.648;2022-11-20T05:36:49;16.40;60.80
71994;DHT22;59861;50.268;8.648;2022-11-20T05:39:15;16.40;60.80
71994;DHT22;59861;50.268;8.648;2022-11-20T05:41:42;16.40;60.80
71994;DHT22;59861;50.268;8.648;2022-11-20T05:44:12;16.40;60.00
71994;DHT22;59861;50.268;8.648;2022-11-20T05:46:39;16.40;60.80
71994;DHT22;59861;50.268;8.648;2022-11-20T05:49:06;16.40;61.00
71994;DHT22;59861;50.268;8.648;2022-11-20T05:51:33;16.40;60.80
71994;DHT22;59861;50.268;8.648;2022-11-20T05:54:00;16.40;60.90
71994;DHT22;59861;50.268;8.648;2022-11-20T05:56:27;16.40;60.90
71994;DHT22;59861;50.268;8.648;2022-11-20T05:58:53;16.40;60.90
71994;DHT22;59861;50.268;8.648;2022-11-20T06:01:22;16.40;60.80
71994;DHT22;59861;50.268;8.648;2022-11-20T06:03:49;16.40;61.00
71994;DHT22;59861;50.268;8.648;2022-11-20T06:06:16;16.40;60.80
71994;DHT22;59861;50.268;8.648;2022-11-20T06:08:43;16.40;60.90
71994;DHT22;59861;50.268;8.648;2022-11-20T06:11:11;16.30;60.80
71994;DHT22;59861;50.268;8.648;2022-11-20T06:13:38;16.40;60.90
71994;DHT22;59861;50.268;8.648;2022-11-20T06:16:05;16.40;60.80
71994;DHT22;59861;50.268;8.648;2022-11-20T06:18:32;16.40;60.80
71994;DHT22;59861;50.268;8.648;2022-11-20T06:20:59;16.30;60.70
71994;DHT22;59861;50.268;8.648;2022-11-20T06:23:27;16.40;60.70
71994;DHT22;59861;50.268;8.648;2022-11-20T06:25:54;16.40;61.60
71994;DHT22;59861;50.268;8.648;2022-11-20T06:28:21;16.30;60.70
71994;DHT22;59861;50.268;8.648;2022-11-20T06:30:48;16.40;60.70
71994;DHT22;59861;50.268;8.648;2022-11-20T06:33:15;16.40;60.80
71994;DHT22;59861;50.268;8.648;2022-11-20T06:35:41;16.30;60.70
71994;DHT22;59861;50.268;8.648;2022-11-20T06:38:08;16.30;60.70
71994;DHT22;59861;50.268;8.648;2022-11-20T06:40:35;16.30;60.70
71994;DHT22;59861;50.268;8.648;2022-11-20T06:43:02;16.40;60.70
71994;DHT22;59861;50.268;8.648;2022-11-20T06:45:29;16.30;60.60
71994;DHT22;59861;50.268;8.648;2022-11-20T06:47:57;16.40;60.80
71994;DHT22;59861;50.268;8.648;2022-11-20T06:50:24;16.30;60.60
71994;DHT22;59861;50.268;8.648;2022-11-20T06:52:51;16.30;60.60
71994;DHT22;59861;50.268;8.648;2022-11-20T06:55:17;16.40;60.80
71994;DHT22;59861;50.268;8.648;2022-11-20T06:57:44;16.40;60.70
71994;DHT22;59861;50.268;8.648;2022-11-20T07:00:11;16.30;60.70
71994;DHT22;59861;50.268;8.648;2022-11-20T07:02:38;16.30;60.70
71994;DHT22;59861;50.268;8.648;2022-11-20T07:05:05;16.30;60.60
71994;DHT22;59861;50.268;8.648;2022-11-20T07:07:32;16.30;60.80
71994;DHT22;59861;50.268;8.648;2022-11-20T07:09:58;16.30;60.70
71994;DHT22;59861;50.268;8.648;2022-11-20T07:12:25;16.30;60.60
71994;DHT22;59861;50.268;8.648;2022-11-20T07:14:52;16.30;60.60
71994;DHT22;59861;50.268;8.648;2022-11-20T07:17:19;16.30;60.60
71994;DHT22;59861;50.268;8.648;2022-11-20T07:19:46;16.30;60.60
71994;DHT22;59861;50.268;8.648;2022-11-20T07:22:12;16.30;60.60
71994;DHT22;59861;50.268;8.648;2022-11-20T07:24:39;16.30;60.60
71994;DHT22;59861;50.268;8.648;2022-11-20T07:27:06;16.30;60.70
71994;DHT22;59861;50.268;8.648;2022-11-20T07:29:33;16.30;60.60
71994;DHT22;59861;50.268;8.648;2022-11-20T07:32:00;16.40;60.70
71994;DHT22;59861;50.268;8.648;2022-11-20T07:34:26;16.30;60.70
71994;DHT22;59861;50.268;8.648;2022-11-20T07:36:53;16.40;60.50
71994;DHT22;59861;50.268;8.648;2022-11-20T07:39:20;16.40;60.50
71994;DHT22;59861;50.268;8.648;2022-11-20T07:41:47;16.40;60.60
71994;DHT22;59861;50.268;8.648;2022-11-20T07:44:13;16.40;60.70
71994;DHT22;59861;50.268;8.648;2022-11-20T07:46:40;16.30;60.80
71994;DHT22;59861;50.268;8.648;2022-11-20T07:49:07;16.40;60.30
71994;DHT22;59861;50.268;8.648;2022-11-20T07:51:34;16.20;52.80
71994;DHT22;59861;50.268;8.648;2022-11-20T07:54:01;12.00;47.00
71994;DHT22;59861;50.268;8.648;2022-11-20T07:56:28;10.00;52.50
71994;DHT22;59861;50.268;8.648;2022-11-20T07:58:54;8.90;55.30
71994;DHT22;59861;50.268;8.648;2022-11-20T08:01:21;9.70;59.70
71994;DHT22;59861;50.268;8.648;2022-11-20T08:03:48;11.80;58.10
71994;DHT22;59861;50.268;8.648;2022-11-20T08:06:15;13.10;56.10
71994;DHT22;59861;50.268;8.648;2022-11-20T08:08:42;13.90;58.70
71994;DHT22;59861;50.268;8.648;2022-11-20T08:11:08;14.40;58.50
71994;DHT22;59861;50.268;8.648;2022-11-20T08:13:53;14.80;57.50
71994;DHT22;59861;50.268;8.648;2022-11-20T08:16:48;15.20;56.90
71994;DHT22;59861;50.268;8.648;2022-11-20T08:19:17;15.50;56.60
71994;DHT22;59861;50.268;8.648;2022-11-20T08:21:43;15.60;56.70
71994;DHT22;59861;50.268;8.648;2022-11-20T08:24:11;15.60;57.10
71994;DHT22;59861;50.268;8.648;2022-11-20T08:26:38;15.60;57.20
71994;DHT22;59861;50.268;8.648;2022-11-20T08:29:05;15.70;57.20
71994;DHT22;59861;50.268;8.648;2022-11-20T08:31:32;15.80;57.50
71994;DHT22;59861;50.268;8.648;2022-11-20T08:33:59;15.90;57.50
71994;DHT22;59861;50.268;8.648;2022-11-20T08:36:26;15.90;57.60
71994;DHT22;59861;50.268;8.648;2022-11-20T08:38:54;15.90;57.50
71994;DHT22;59861;50.268;8.648;2022-11-20T08:41:21;16.00;57.70
71994;DHT22;59861;50.268;8.648;2022-11-20T08:43:57;16.00;57.80
71994;DHT22;59861;50.268;8.648;2022-11-20T08:46:24;16.00;57.90
71994;DHT22;59861;50.268;8.648;2022-11-20T08:48:51;16.10;58.00
71994;DHT22;59861;50.268;8.648;2022-11-20T08:51:19;16.10;58.10
71994;DHT22;59861;50.268;8.648;2022-11-20T08:53:46;16.20;58.10
71994;DHT22;59861;50.268;8.648;2022-11-20T08:56:14;16.20;58.10
71994;DHT22;59861;50.268;8.648;2022-11-20T08:58:41;16.20;58.10
71994;DHT22;59861;50.268;8.648;2022-11-20T09:01:08;16.30;58.20
71994;DHT22;59861;50.268;8.648;2022-11-20T09:03:35;16.30;58.60
71994;DHT22;59861;50.268;8.648;2022-11-20T09:06:06;16.30;58.60
71994;DHT22;59861;50.268;8.648;2022-11-20T09:08:33;16.40;58.70
71994;DHT22;59861;50.268;8.648;2022-11-20T09:11:02;16.40;58.80
71994;DHT22;59861;50.268;8.648;2022-11-20T09:13:30;16.30;58.70
71994;DHT22;59861;50.268;8.648;2022-11-20T09:16:07;16.40;58.70
71994;DHT22;59861;50.268;8.648;2022-11-20T09:18:26;16.40;58.80
71994;DHT22;59861;50.268;8.648;2022-11-20T09:20:59;16.40;58.90
71994;DHT22;59861;50.268;8.648;2022-11-20T09:23:22;16.40;59.00
71994;DHT22;59861;50.268;8.648;2022-11-20T09:25:49;16.40;59.10
71994;DHT22;59861;50.268;8.648;2022-11-20T09:28:16;16.50;59.10
71994;DHT22;59861;50.268;8.648;2022-11-20T09:30:44;16.50;59.20
71994;DHT22;59861;50.268;8.648;2022-11-20T09:33:11;16.60;59.00
71994;DHT22;59861;50.268;8.648;2022-11-20T09:35:37;16.60;58.80
71994;DHT22;59861;50.268;8.648;2022-11-20T09:38:05;16.70;58.80
71994;DHT22;59861;50.268;8.648;2022-11-20T09:40:32;16.70;58.90
71994;DHT22;59861;50.268;8.648;2022-11-20T09:48:15;16.60;59.30
71994;DHT22;59861;50.268;8.648;2022-11-20T09:53:16;16.70;59.30
71994;DHT22;59861;50.268;8.648;2022-11-20T09:55:41;16.70;59.30
71994;DHT22;59861;50.268;8.648;2022-11-20T09:58:22;16.70;59.30
71994;DHT22;59861;50.268;8.648;2022-11-20T10:00:40;16.80;59.20
71994;DHT22;59861;50.268;8.648;2022-11-20T10:03:26;16.80;59.20
71994;DHT22;59861;50.268;8.648;2022-11-20T10:05:51;16.80;59.30
71994;DHT22;59861;50.268;8.648;2022-11-20T10:10:52;16.90;59.50
71994;DHT22;59861;50.268;8.648;2022-11-20T10:16:02;16.90;59.30
71994;DHT22;59861;50.268;8.648;2022-11-20T10:18:42;16.90;59.30
71994;DHT22;59861;50.268;8.648;2022-11-20T10:21:17;17.00;59.40
71994;DHT22;59861;50.268;8.648;2022-11-20T10:26:35;17.00;59.40
71994;DHT22;59861;50.268;8.648;2022-11-20T10:29:19;17.00;59.50
71994;DHT22;59861;50.268;8.648;2022-11-20T10:31:44;17.00;59.40
71994;DHT22;59861;50.268;8.648;2022-11-20T10:36:55;17.00;59.50
71994;DHT22;59861;50.268;8.648;2022-11-20T10:39:33;17.00;59.60
71994;DHT22;59861;50.268;8.648;2022-11-20T10:42:00;17.00;59.60
71994;DHT22;59861;50.268;8.648;2022-11-20T10:44:28;17.10;59.60
71994;DHT22;59861;50.268;8.648;2022-11-20T10:47:14;17.00;59.80
71994;DHT22;59861;50.268;8.648;2022-11-20T10:49:42;17.00;59.90
71994;DHT22;59861;50.268;8.648;2022-11-20T10:52:22;17.00;59.80
71994;DHT22;59861;50.268;8.648;2022-11-20T10:54:49;17.10;59.80
71994;DHT22;59861;50.268;8.648;2022-11-20T10:57:18;17.00;59.80
71994;DHT22;59861;50.268;8.648;2022-11-20T11:04:47;17.00;60.30
71994;DHT22;59861;50.268;8.648;2022-11-20T11:07:20;17.00;60.40
71994;DHT22;59861;50.268;8.648;2022-11-20T11:09:50;17.00;60.40
71994;DHT22;59861;50.268;8.648;2022-11-20T11:12:16;17.00;60.60
71994;DHT22;59861;50.268;8.648;2022-11-20T11:19:56;17.00;60.70
71994;DHT22;59861;50.268;8.648;2022-11-20T11:22:16;17.00;60.80
71994;DHT22;59861;50.268;8.648;2022-11-20T11:24:51;17.10;61.00
71994;DHT22;59861;50.268;8.648;2022-11-20T11:27:12;17.00;60.80
71994;DHT22;59861;50.268;8.648;2022-11-20T11:29:39;17.10;60.90
71994;DHT22;59861;50.268;8.648;2022-11-20T11:32:08;17.10;60.90
71994;DHT22;59861;50.268;8.648;2022-11-20T11:34:35;17.10;60.80
71994;DHT22;59861;50.268;8.648;2022-11-20T11:37:02;17.20;60.90
71994;DHT22;59861;50.268;8.648;2022-11-20T11:39:32;17.20;60.80
71994;DHT22;59861;50.268;8.648;2022-11-20T11:41:59;17.10;60.80
71994;DHT22;59861;50.268;8.648;2022-11-20T11:44:31;17.10;60.90
71994;DHT22;59861;50.268;8.648;2022-11-20T11:47:24;17.20;60.80
71994;DHT22;59861;50.268;8.648;2022-11-20T11:52:28;17.20;60.70
71994;DHT22;59861;50.268;8.648;2022-11-20T11:54:57;17.20;60.80
71994;DHT22;59861;50.268;8.648;2022-11-20T11:59:59;17.20;60.70
71994;DHT22;59861;50.268;8.648;2022-11-20T12:02:31;17.20;60.70
71994;DHT22;59861;50.268;8.648;2022-11-20T12:04:54;17.30;60.60
71994;DHT22;59861;50.268;8.648;2022-11-20T12:07:29;17.30;60.60
71994;DHT22;59861;50.268;8.648;2022-11-20T12:09:53;17.30;60.70
71994;DHT22;59861;50.268;8.648;2022-11-20T12:15:09;17.30;60.40
71994;DHT22;59861;50.268;8.648;2022-11-20T12:17:35;17.30;60.50
71994;DHT22;59861;50.268;8.648;2022-11-20T12:20:02;17.30;60.40
71994;DHT22;59861;50.268;8.648;2022-11-20T12:22:39;17.30;60.30
71994;DHT22;59861;50.268;8.648;2022-11-20T12:25:22;17.30;60.50
71994;DHT22;59861;50.268;8.648;2022-11-20T12:28:03;17.30;60.40
71994;DHT22;59861;50.268;8.648;2022-11-20T12:30:28;17.30;60.60
71994;DHT22;59861;50.268;8.648;2022-11-20T12:33:18;17.30;60.70
71994;DHT22;59861;50.268;8.648;2022-11-20T12:40:51;17.30;61.50
71994;DHT22;59861;50.268;8.648;2022-11-20T12:43:23;17.30;60.50
71994;DHT22;59861;50.268;8.648;2022-11-20T12:46:15;17.30;60.50
71994;DHT22;59861;50.268;8.648;2022-11-20T12:48:48;17.20;60.70
71994;DHT22;59861;50.268;8.648;2022-11-20T12:51:18;17.20;61.80
71994;DHT22;59861;50.268;8.648;2022-11-20T12:53:47;17.20;60.50
71994;DHT22;59861;50.268;8.648;2022-11-20T13:01:58;17.30;61.10
71994;DHT22;59861;50.268;8.648;2022-11-20T13:07:11;11.50;54.70
71994;DHT22;59861;50.268;8.648;2022-11-20T13:09:42;11.80;61.30
71994;DHT22;59861;50.268;8.648;2022-11-20T13:12:12;13.50;63.10
71994;DHT22;59861;50.268;8.648;2022-11-20T13:19:56;15.70;60.10
71994;DHT22;59861;50.268;8.648;2022-11-20T13:22:31;16.00;59.70
71994;DHT22;59861;50.268;8.648;2022-11-20T13:24:56;16.20;59.40
71994;DHT22;59861;50.268;8.648;2022-11-20T13:27:23;16.30;59.30
71994;DHT22;59861;50.268;8.648;2022-11-20T13:30:00;16.40;59.40
71994;DHT22;59861;50.268;8.648;2022-11-20T13:32:27;16.40;59.30
71994;DHT22;59861;50.268;8.648;2022-11-20T13:34:59;16.50;59.30
71994;DHT22;59861;50.268;8.648;2022-11-20T13:37:31;16.60;59.30
71994;DHT22;59861;50.268;8.648;2022-11-20T13:43:01;16.70;59.20
71994;DHT22;59861;50.268;8.648;2022-11-20T13:45:26;16.80;59.10
71994;DHT22;59861;50.268;8.648;2022-11-20T13:47:53;16.90;59.10
71994;DHT22;59861;50.268;8.648;2022-11-20T13:53:15;16.90;59.10
71994;DHT22;59861;50.268;8.648;2022-11-20T14:00:55;17.00;59.20
71994;DHT22;59861;50.268;8.648;2022-11-20T14:03:19;17.00;59.40
71994;DHT22;59861;50.268;8.648;2022-11-20T14:05:51;17.10;59.30
71994;DHT22;59861;50.268;8.648;2022-11-20T14:08:23;17.10;59.40
71994;DHT22;59861;50.268;8.648;2022-11-20T14:10:46;17.10;59.60
71994;DHT22;59861;50.268;8.648;2022-11-20T14:13:20;17.10;59.60
71994;DHT22;59861;50.268;8.648;2022-11-20T14:15:44;17.10;59.70
71994;DHT22;59861;50.268;8.648;2022-11-20T14:18:19;17.10;59.70
71994;DHT22;59861;50.268;8.648;2022-11-20T14:20:39;17.10;59.60
71994;DHT22;59861;50.268;8.648;2022-11-20T14:23:08;17.20;59.70
71994;DHT22;59861;50.268;8.648;2022-11-20T14:25:35;17.20;59.70
71994;DHT22;59861;50.268;8.648;2022-11-20T14:28:03;17.20;59.80
71994;DHT22;59861;50.268;8.648;2022-11-20T14:30:51;17.20;59.90
71994;DHT22;59861;50.268;8.648;2022-11-20T14:33:01;17.20;60.10
71994;DHT22;59861;50.268;8.648;2022-11-20T14:35:29;17.20;60.10
71994;DHT22;59861;50.268;8.648;2022-11-20T14:37:55;17.20;60.20
71994;DHT22;59861;50.268;8.648;2022-11-20T14:40:27;17.20;60.00
71994;DHT22;59861;50.268;8.648;2022-11-20T14:42:54;17.20;60.10
71994;DHT22;59861;50.268;8.648;2022-11-20T14:45:21;17.20;60.00
71994;DHT22;59861;50.268;8.648;2022-11-20T14:47:49;17.20;60.00
71994;DHT22;59861;50.268;8.648;2022-11-20T14:50:26;17.20;60.00
71994;DHT22;59861;50.268;8.648;2022-11-20T14:52:54;17.20;60.00
71994;DHT22;59861;50.268;8.648;2022-11-20T14:55:28;17.10;60.00
71994;DHT22;59861;50.268;8.648;2022-11-20T14:57:56;17.10;60.00
71994;DHT22;59861;50.268;8.648;2022-11-20T15:00:23;17.10;60.10
71994;DHT22;59861;50.268;8.648;2022-11-20T15:02:50;17.20;60.30
71994;DHT22;59861;50.268;8.648;2022-11-20T15:05:18;17.10;60.30
71994;DHT22;59861;50.268;8.648;2022-11-20T15:07:47;17.10;60.40
71994;DHT22;59861;50.268;8.648;2022-11-20T15:10:24;17.20;60.50
71994;DHT22;59861;50.268;8.648;2022-11-20T15:12:52;17.10;60.50
71994;DHT22;59861;50.268;8.648;2022-11-20T15:15:36;17.00;59.80
71994;DHT22;59861;50.268;8.648;2022-11-20T15:18:03;17.00;59.70
71994;DHT22;59861;50.268;8.648;2022-11-20T15:20:31;17.10;59.90
71994;DHT22;59861;50.268;8.648;2022-11-20T15:22:58;17.10;60.00
71994;DHT22;59861;50.268;8.648;2022-11-20T15:25:26;17.10;60.00
71994;DHT22;59861;50.268;8.648;2022-11-20T15:27:58;17.10;59.90
71994;DHT22;59861;50.268;8.648;2022-11-20T15:30:22;17.10;59.90
71994;DHT22;59861;50.268;8.648;2022-11-20T15:32:49;17.20;60.00
71994;DHT22;59861;50.268;8.648;2022-11-20T15:35:16;17.20;60.00
71994;DHT22;59861;50.268;8.648;2022-11-20T15:37:43;17.20;60.10
71994;DHT22;59861;50.268;8.648;2022-11-20T15:40:10;17.20;60.10
71994;DHT22;59861;50.268;8.648;2022-11-20T15:42:37;17.10;60.10
71994;DHT22;59861;50.268;8.648;2022-11-20T15:45:04;17.10;60.20
71994;DHT22;59861;50.268;8.648;2022-11-20T15:47:32;17.10;60.40
71994;DHT22;59861;50.268;8.648;2022-11-20T15:49:59;17.10;60.40
71994;DHT22;59861;50.268;8.648;2022-11-20T15:52:26;17.10;60.40
71994;DHT22;59861;50.268;8.648;2022-11-20T15:54:53;17.10;60.40
71994;DHT22;59861;50.268;8.648;2022-11-20T15:57:20;17.20;60.70
71994;DHT22;59861;50.268;8.648;2022-11-20T15:59:47;17.10;60.50
71994;DHT22;59861;50.268;8.648;2022-11-20T16:02:14;17.10;60.50
71994;DHT22;59861;50.268;8.648;2022-11-20T16:04:41;17.20;60.40
71994;DHT22;59861;50.268;8.648;2022-11-20T16:07:08;17.20;60.40
71994;DHT22;59861;50.268;8.648;2022-11-20T16:09:35;17.20;60.10
71994;DHT22;59861;50.268;8.648;2022-11-20T16:12:02;17.20;60.20
71994;DHT22;59861;50.268;8.648;2022-11-20T16:14:29;17.20;60.50
71994;DHT22;59861;50.268;8.648;2022-11-20T16:17:13;17.10;60.60
71994;DHT22;59861;50.268;8.648;2022-11-20T16:19:40;17.10;60.80
71994;DHT22;59861;50.268;8.648;2022-11-20T16:22:09;17.10;60.90
71994;DHT22;59861;50.268;8.648;2022-11-20T16:24:35;17.20;60.90
71994;DHT22;59861;50.268;8.648;2022-11-20T16:27:02;17.20;61.00
71994;DHT22;59861;50.268;8.648;2022-11-20T16:29:29;17.20;60.90
71994;DHT22;59861;50.268;8.648;2022-11-20T16:31:56;17.20;61.00
71994;DHT22;59861;50.268;8.648;2022-11-20T16:34:23;17.10;60.80
71994;DHT22;59861;50.268;8.648;2022-11-20T16:36:50;17.10;60.80
71994;DHT22;59861;50.268;8.648;2022-11-20T16:39:16;17.10;60.80
71994;DHT22;59861;50.268;8.648;2022-11-20T16:41:43;17.10;60.70
71994;DHT22;59861;50.268;8.648;2022-11-20T16:44:10;17.10;61.70
71994;DHT22;59861;50.268;8.648;2022-11-20T16:46:37;17.10;60.90